Time;durP1;ratioP1;P1;durP2;ratioP2;P2;SDS_P1;SDS_P2;PMS_P1;PMS_P2;Temp;Humidity;BMP_temperature;BMP_pressure;BME280_temperature;BME280_humidity;BME280_pressure;Samples;Min_cycle;Max_cycle;Signal;HPM_P1;HPM_P2
2022/07/10 00:00:11;;;;;;;4.17;1.00;;;;;;;14.71;77.71;102231.28;5071050;28;20201;-71
2022/07/10 00:02:40;;;;;;;2.50;0.90;;;;;;;14.71;77.66;102226.13;5073061;28;20188;-71
2022/07/10 00:05:07;;;;;;;1.97;0.80;;;;;;;14.71;77.96;102227.81;5070791;28;20262;-72
2022/07/10 00:07:33;;;;;;;3.20;1.27;;;;;;;14.64;78.50;102215.63;5071732;28;20217;-72
2022/07/10 00:09:58;;;;;;;2.77;1.33;;;;;;;14.64;79.10;102219.03;5072178;28;20195;-72
2022/07/10 00:12:24;;;;;;;3.40;1.13;;;;;;;14.68;79.51;102217.44;5070570;28;20189;-72
2022/07/10 00:14:50;;;;;;;5.60;1.03;;;;;;;14.66;79.86;102216.50;5072062;28;20189;-71
2022/07/10 00:17:15;;;;;;;2.27;1.10;;;;;;;14.61;80.64;102224.16;5071692;28;20220;-72
2022/07/10 00:19:41;;;;;;;4.47;1.07;;;;;;;14.57;80.66;102218.84;5070802;28;20258;-72
2022/07/10 00:22:06;;;;;;;1.87;0.83;;;;;;;14.59;80.97;102220.63;5066319;28;20225;-72
2022/07/10 00:24:32;;;;;;;6.43;1.43;;;;;;;14.60;81.90;102231.84;5072015;28;20186;-72
2022/07/10 00:26:57;;;;;;;4.67;1.10;;;;;;;14.59;81.41;102220.63;5071673;28;20181;-72
2022/07/10 00:29:23;;;;;;;4.10;0.93;;;;;;;14.59;81.87;102223.22;5070776;28;20177;-72
2022/07/10 00:31:48;;;;;;;4.20;1.30;;;;;;;14.59;81.25;102217.22;5072076;28;20275;-70
2022/07/10 00:34:14;;;;;;;4.60;1.37;;;;;;;14.60;81.83;102216.38;5071719;28;20647;-72
2022/07/10 00:36:39;;;;;;;3.17;1.17;;;;;;;14.57;81.98;102204.28;5071431;28;20201;-72
2022/07/10 00:39:04;;;;;;;2.83;1.27;;;;;;;14.51;82.99;102211.84;5071871;28;20204;-71
2022/07/10 00:41:30;;;;;;;3.83;1.10;;;;;;;14.51;82.58;102205.81;5071612;28;20208;-71
2022/07/10 00:43:58;;;;;;;3.77;1.00;;;;;;;14.51;82.68;102209.25;5070128;28;20223;-72
2022/07/10 00:46:24;;;;;;;3.77;1.40;;;;;;;14.51;82.28;102219.56;5071279;28;20213;-71
2022/07/10 00:48:50;;;;;;;2.27;1.17;;;;;;;14.44;82.35;102211.63;5071227;28;20931;-72
2022/07/10 00:51:18;;;;;;;3.20;0.90;;;;;;;14.42;81.60;102211.63;5070544;28;20181;-72
2022/07/10 00:53:45;;;;;;;3.37;1.20;;;;;;;14.40;81.95;102210.69;5071486;28;20276;-71
2022/07/10 00:56:11;;;;;;;4.23;1.33;;;;;;;14.38;81.65;102207.22;5071542;28;20620;-72
2022/07/10 00:58:39;;;;;;;4.90;1.30;;;;;;;14.26;82.19;102203.44;5074890;28;20204;-71
2022/07/10 01:01:05;;;;;;;3.40;1.00;;;;;;;14.22;82.69;102199.06;5071328;28;20658;-72
2022/07/10 01:03:30;;;;;;;3.40;1.07;;;;;;;14.16;83.52;102204.00;5071372;28;20189;-72
2022/07/10 01:05:56;;;;;;;4.03;1.00;;;;;;;14.13;83.78;102204.78;5071850;28;20177;-72
2022/07/10 01:08:21;;;;;;;3.27;1.27;;;;;;;14.05;83.83;102202.84;5086743;28;20205;-72
2022/07/10 01:10:47;;;;;;;3.23;1.10;;;;;;;14.03;83.89;102197.66;5071602;28;20699;-71
2022/07/10 01:13:13;;;;;;;5.93;1.27;;;;;;;14.00;84.57;102202.69;5071241;28;20192;-72
2022/07/10 01:15:39;;;;;;;5.50;1.43;;;;;;;13.98;84.80;102199.22;5086585;28;20196;-72
2022/07/10 01:18:04;;;;;;;3.00;1.00;;;;;;;13.96;84.82;102197.44;5070692;28;20209;-72
2022/07/10 01:20:34;;;;;;;4.27;1.20;;;;;;;13.96;85.22;102205.16;5070626;28;20242;-71
2022/07/10 01:23:01;;;;;;;4.73;1.30;;;;;;;13.93;85.66;102194.78;5070740;28;20197;-71
2022/07/10 01:25:26;;;;;;;6.43;1.10;;;;;;;13.90;85.63;102194.72;5071089;28;20189;-71
2022/07/10 01:27:52;;;;;;;6.30;1.30;;;;;;;13.88;86.16;102191.19;5070417;28;20208;-72
2022/07/10 01:30:19;;;;;;;3.60;1.30;;;;;;;13.87;85.83;102185.19;5068976;28;20193;-72
2022/07/10 01:32:44;;;;;;;4.30;1.40;;;;;;;13.89;85.95;102188.66;5070754;28;20193;-71
2022/07/10 01:35:10;;;;;;;4.33;1.23;;;;;;;13.89;86.11;102182.63;5070275;28;20322;-72
2022/07/10 01:37:37;;;;;;;7.53;1.53;;;;;;;13.86;85.84;102180.84;5070238;28;20209;-72
2022/07/10 01:40:03;;;;;;;6.23;1.40;;;;;;;13.87;85.46;102174.91;5071105;28;20185;-72
2022/07/10 01:42:28;;;;;;;5.03;1.33;;;;;;;13.85;85.30;102178.25;5086310;28;20200;-71
2022/07/10 01:44:54;;;;;;;4.87;1.43;;;;;;;13.81;85.67;102168.69;5070877;28;20189;-72
2022/07/10 01:47:24;;;;;;;2.33;0.97;;;;;;;13.75;85.45;102169.41;5069787;28;20675;-71
2022/07/10 01:49:50;;;;;;;5.33;1.10;;;;;;;13.74;85.87;102170.22;5069296;28;20639;-71
2022/07/10 01:52:16;;;;;;;3.00;1.23;;;;;;;13.68;85.55;102159.75;5069075;28;20189;-72
2022/07/10 01:54:41;;;;;;;3.27;0.93;;;;;;;13.64;86.23;102167.34;5086040;28;20689;-72
2022/07/10 01:57:07;;;;;;;3.93;1.10;;;;;;;13.64;86.05;102169.94;5071899;28;20216;-72
2022/07/10 01:59:32;;;;;;;4.93;1.30;;;;;;;13.58;86.13;102168.03;5076075;28;20270;-72
2022/07/10 02:01:58;;;;;;;5.43;1.23;;;;;;;13.56;86.69;102167.13;5070048;28;20642;-71
2022/07/10 02:04:41;;;;;;;4.33;1.20;;;;;;;13.60;86.37;102165.50;5069567;28;20623;-72
2022/07/10 02:07:10;;;;;;;3.60;1.20;;;;;;;13.58;86.83;102164.63;5069688;28;20753;-72
2022/07/10 02:09:37;;;;;;;3.93;1.00;;;;;;;13.55;86.85;102151.66;5070188;28;20192;-72
2022/07/10 02:12:02;;;;;;;5.00;1.20;;;;;;;13.53;87.05;102163.63;5069094;28;20809;-72
2022/07/10 02:14:28;;;;;;;5.13;1.13;;;;;;;13.55;86.82;102162.81;5068740;28;20204;-72
2022/07/10 02:16:54;;;;;;;4.73;1.50;;;;;;;13.53;87.43;102166.19;5069200;28;20204;-70
2022/07/10 02:19:19;;;;;;;3.87;0.97;;;;;;;13.55;86.87;102167.09;5070054;28;20170;-72
2022/07/10 02:21:46;;;;;;;4.90;0.90;;;;;;;13.51;87.10;102168.72;5069375;28;20173;-71
2022/07/10 02:24:11;;;;;;;4.27;1.40;;;;;;;13.55;87.39;102159.38;5069533;28;20271;-71
2022/07/10 02:26:37;;;;;;;4.10;1.27;;;;;;;13.55;86.92;102164.50;5069352;28;20319;-71
2022/07/10 02:29:02;;;;;;;3.90;1.53;;;;;;;13.56;87.33;102161.09;5085180;28;20205;-72
2022/07/10 02:31:28;;;;;;;10.20;1.60;;;;;;;13.57;87.49;102160.28;5069777;28;20799;-72
2022/07/10 02:33:53;;;;;;;3.57;1.20;;;;;;;13.54;87.38;102158.47;5069266;28;20189;-72
2022/07/10 02:36:19;;;;;;;4.83;1.40;;;;;;;13.55;87.25;102155.09;5069065;28;20211;-72
2022/07/10 02:38:44;;;;;;;5.80;1.30;;;;;;;13.53;87.48;102150.75;5069471;28;20213;-71
2022/07/10 02:41:09;;;;;;;5.53;1.10;;;;;;;13.55;87.89;102151.66;5069341;28;20235;-72
2022/07/10 02:43:35;;;;;;;6.47;1.73;;;;;;;13.58;87.98;102155.16;5069536;28;20263;-72
2022/07/10 02:46:01;;;;;;;3.63;1.47;;;;;;;13.63;87.65;102153.59;5069652;28;20310;-72
2022/07/10 02:48:27;;;;;;;7.00;1.47;;;;;;;13.65;87.42;102151.97;5068887;28;20725;-70
2022/07/10 02:50:53;;;;;;;6.13;1.60;;;;;;;13.68;87.36;102158.88;5069135;28;20189;-71
2022/07/10 02:53:18;;;;;;;6.23;1.47;;;;;;;13.67;87.28;102152.84;5085383;28;20192;-72
2022/07/10 02:55:44;;;;;;;5.03;1.47;;;;;;;13.66;87.09;102156.25;5069534;28;20190;-71
2022/07/10 02:58:09;;;;;;;3.63;1.47;;;;;;;13.71;87.20;102156.41;5082747;28;20301;-71
2022/07/10 03:00:36;;;;;;;6.70;1.93;;;;;;;13.72;86.97;102155.56;5068335;28;20252;-72
2022/07/10 03:03:01;;;;;;;6.30;1.50;;;;;;;13.73;86.89;102155.63;5069415;28;20204;-72
2022/07/10 03:05:27;;;;;;;7.63;1.40;;;;;;;13.75;86.81;102150.50;5067367;28;20196;-72
2022/07/10 03:07:53;;;;;;;7.13;1.40;;;;;;;13.77;86.83;102156.56;5068857;28;20205;-72
2022/07/10 03:10:18;;;;;;;4.67;1.47;;;;;;;13.78;86.58;102155.72;5069088;28;20189;-71
2022/07/10 03:12:44;;;;;;;9.63;2.00;;;;;;;13.79;87.06;102154.91;5084634;28;20192;-71
2022/07/10 03:15:10;;;;;;;6.57;1.57;;;;;;;13.78;87.18;102146.31;5067854;28;20184;-72
2022/07/10 03:17:35;;;;;;;7.17;1.60;;;;;;;13.80;86.57;102160.09;5068304;28;20263;-72
2022/07/10 03:20:01;;;;;;;6.20;1.60;;;;;;;13.83;87.04;102151.56;5067680;28;20181;-72
2022/07/10 03:22:28;;;;;;;6.73;1.77;;;;;;;13.83;87.50;102149.88;5070023;28;20698;-71
2022/07/10 03:24:54;;;;;;;7.03;1.70;;;;;;;13.87;86.87;102149.16;5088806;28;20192;-71
2022/07/10 03:27:19;;;;;;;5.47;1.87;;;;;;;13.90;87.26;102149.22;5072657;28;20212;-72
2022/07/10 03:29:46;;;;;;;7.03;1.93;;;;;;;13.92;86.67;102145.00;5073303;28;20226;-71
2022/07/10 03:32:11;;;;;;;14.00;1.83;;;;;;;13.95;86.92;102152.78;5059520;28;20196;-72
2022/07/10 03:34:37;;;;;;;6.27;2.03;;;;;;;13.94;87.21;102148.47;5072828;28;20197;-72
2022/07/10 03:37:03;;;;;;;6.13;1.50;;;;;;;13.96;86.97;102145.94;5072415;28;20205;-72
2022/07/10 03:39:28;;;;;;;7.80;1.83;;;;;;;13.97;86.59;102139.94;5072643;28;20629;-72
2022/07/10 03:41:54;;;;;;;8.53;2.07;;;;;;;13.99;86.65;102146.88;5072734;28;20185;-72
2022/07/10 03:44:19;;;;;;;6.93;1.90;;;;;;;13.98;86.41;102137.41;5073050;28;20173;-72
2022/07/10 03:46:45;;;;;;;4.97;1.90;;;;;;;13.99;86.55;102140.88;5072448;28;20577;-71
2022/07/10 03:49:11;;;;;;;6.17;2.00;;;;;;;14.00;85.83;102143.47;5072343;28;20223;-71
2022/07/10 03:51:36;;;;;;;9.17;2.20;;;;;;;14.00;86.17;102138.31;5088147;28;20185;-72
2022/07/10 03:54:02;;;;;;;10.30;2.17;;;;;;;14.01;85.58;102146.91;5072527;28;20223;-72
2022/07/10 03:59:11;;;;;;;5.13;1.93;;;;;;;14.07;85.63;102147.06;5088242;28;20813;-71
2022/07/10 04:01:36;;;;;;;13.77;2.93;;;;;;;14.04;85.56;102135.00;5072287;28;20216;-72
2022/07/10 04:04:02;;;;;;;9.83;2.30;;;;;;;14.04;84.70;102139.28;5072528;28;20185;-72
2022/07/10 04:06:28;;;;;;;5.60;1.57;;;;;;;14.03;84.89;102140.97;5072453;28;20181;-71
2022/07/10 04:08:53;;;;;;;4.17;1.80;;;;;;;14.06;84.66;102141.06;5070947;28;21087;-72
2022/07/10 04:11:19;;;;;;;7.43;2.20;;;;;;;14.06;84.64;102135.91;5072130;28;20216;-72
2022/07/10 04:13:44;;;;;;;10.83;2.50;;;;;;;14.07;84.59;102129.03;5072163;28;20623;-72
2022/07/10 04:16:12;;;;;;;7.17;1.90;;;;;;;14.07;85.08;102136.78;5072268;28;20617;-72
2022/07/10 04:18:41;;;;;;;7.20;2.30;;;;;;;14.10;84.46;102123.97;5071605;28;20217;-72
2022/07/10 04:21:06;;;;;;;7.33;2.33;;;;;;;14.12;84.00;102120.59;5067203;28;20185;-70
2022/07/10 04:23:35;;;;;;;8.43;2.70;;;;;;;14.17;83.76;102123.28;5055608;28;20189;-72
2022/07/10 04:26:01;;;;;;;7.27;2.20;;;;;;;14.24;84.15;102125.22;5072075;28;20216;-71
2022/07/10 04:28:27;;;;;;;11.13;2.70;;;;;;;14.29;83.65;102123.63;5071778;28;20212;-71
2022/07/10 04:30:52;;;;;;;6.57;2.30;;;;;;;14.35;83.72;102121.19;5072063;28;20558;-72
2022/07/10 04:33:18;;;;;;;8.73;2.30;;;;;;;14.38;83.84;102121.28;5071965;28;20200;-72
2022/07/10 04:35:43;;;;;;;10.13;2.50;;;;;;;14.45;83.65;102129.22;5071262;28;20192;-73
2022/07/10 04:38:09;;;;;;;6.97;2.33;;;;;;;14.49;84.11;102125.88;5071573;28;20221;-71
2022/07/10 04:40:35;;;;;;;12.13;2.97;;;;;;;14.51;83.50;102110.44;5072031;28;20184;-72
2022/07/10 04:43:00;;;;;;;6.60;2.13;;;;;;;14.53;83.09;102119.06;5071990;28;20185;-71
2022/07/10 04:45:26;;;;;;;7.93;2.40;;;;;;;14.56;83.08;102117.47;5071928;28;20662;-72
2022/07/10 04:47:51;;;;;;;13.10;2.50;;;;;;;14.57;83.13;102121.78;5070233;28;20702;-72
2022/07/10 04:50:17;;;;;;;8.00;2.20;;;;;;;14.62;83.38;102132.19;5071726;28;20682;-72
2022/07/10 04:52:43;;;;;;;5.93;2.10;;;;;;;14.66;82.85;102132.31;5071661;28;20212;-72
2022/07/10 04:55:09;;;;;;;7.70;2.20;;;;;;;14.69;82.06;102136.66;5071764;28;20224;-72
2022/07/10 04:57:35;;;;;;;11.50;2.60;;;;;;;14.77;82.46;102143.72;5077325;28;20212;-72
2022/07/10 05:00:00;;;;;;;8.03;2.60;;;;;;;14.83;81.09;102130.97;5083335;28;20185;-72
2022/07/10 05:02:26;;;;;;;9.20;2.30;;;;;;;14.86;80.76;102140.47;5091910;28;20549;-71
2022/07/10 05:04:51;;;;;;;8.07;2.37;;;;;;;14.93;80.53;102142.38;5091851;28;20180;-72
2022/07/10 05:07:17;;;;;;;9.33;2.57;;;;;;;14.99;80.07;102142.50;5091394;28;20295;-72
2022/07/10 05:09:42;;;;;;;10.60;2.60;;;;;;;15.03;79.62;102140.03;5091729;28;20200;-71
2022/07/10 05:12:08;;;;;;;8.77;2.63;;;;;;;15.11;78.99;102145.38;5091708;28;20279;-71
2022/07/10 05:14:33;;;;;;;10.07;2.60;;;;;;;15.11;79.86;102138.47;5079731;28;20193;-72
2022/07/10 05:16:59;;;;;;;9.17;2.50;;;;;;;15.04;80.41;102140.91;5071069;28;20614;-72
2022/07/10 05:19:24;;;;;;;6.87;2.40;;;;;;;15.08;80.64;102138.44;5078974;28;20220;-70
2022/07/10 05:21:50;;;;;;;9.47;2.20;;;;;;;15.13;80.13;102139.41;5083095;28;20181;-72
2022/07/10 05:24:15;;;;;;;10.60;3.10;;;;;;;15.15;80.12;102142.03;5091536;28;20188;-72
2022/07/10 05:26:41;;;;;;;9.40;2.83;;;;;;;15.22;79.79;102139.59;5091161;28;20184;-72
2022/07/10 05:29:07;;;;;;;10.87;2.40;;;;;;;15.28;79.92;102137.13;5091347;28;20203;-72
2022/07/10 05:31:32;;;;;;;9.70;3.07;;;;;;;15.32;79.64;102140.66;5091329;28;20260;-72
2022/07/10 05:33:58;;;;;;;13.03;3.23;;;;;;;15.37;78.56;102139.09;5091193;28;20287;-72
2022/07/10 05:36:24;;;;;;;12.63;2.60;;;;;;;15.42;78.29;102145.22;5090902;28;20209;-71
2022/07/10 05:38:49;;;;;;;7.80;2.90;;;;;;;15.49;78.02;102136.75;5091116;28;20739;-72
2022/07/10 05:41:15;;;;;;;10.67;2.90;;;;;;;15.49;75.20;102135.06;5091049;28;20271;-71
2022/07/10 05:43:41;;;;;;;13.50;3.33;;;;;;;15.48;72.17;102137.59;5091215;28;20180;-72
2022/07/10 05:46:06;;;;;;;12.83;3.53;;;;;;;15.41;71.43;102144.34;5090139;28;20267;-71
2022/07/10 05:48:32;;;;;;;14.23;3.77;;;;;;;15.47;72.39;102141.03;5091005;28;20200;-72
2022/07/10 05:50:57;;;;;;;11.90;3.53;;;;;;;15.46;71.88;102137.56;5091109;28;20177;-71
2022/07/10 05:53:23;;;;;;;11.20;3.27;;;;;;;15.45;70.74;102135.81;5090048;28;20615;-72
2022/07/10 05:55:49;;;;;;;15.17;3.57;;;;;;;15.55;70.35;102142.91;5090930;28;20180;-71
2022/07/10 05:58:16;;;;;;;10.77;3.30;;;;;;;15.69;69.61;102144.06;5076084;28;20697;-71
2022/07/10 06:00:43;;;;;;;12.47;3.10;;;;;;;15.97;69.27;102146.31;5075075;28;20189;-71
2022/07/10 06:03:09;;;;;;;10.40;2.77;;;;;;;16.21;68.09;102143.31;5070495;28;20185;-72
2022/07/10 06:05:35;;;;;;;11.93;2.93;;;;;;;16.28;66.82;102135.69;5069205;28;20215;-72
2022/07/10 06:08:02;;;;;;;14.33;3.30;;;;;;;16.32;66.93;102146.94;5068838;28;20212;-72
2022/07/10 06:10:27;;;;;;;12.23;3.10;;;;;;;16.40;67.19;102142.81;5070203;28;20189;-72
2022/07/10 06:12:52;;;;;;;10.73;2.87;;;;;;;16.49;66.03;102141.22;5070267;28;20318;-72
2022/07/10 06:15:18;;;;;;;13.77;3.40;;;;;;;16.58;65.26;102138.78;5069886;28;20213;-71
2022/07/10 06:17:43;;;;;;;10.67;2.67;;;;;;;16.89;64.27;102130.63;5069871;28;21022;-73
2022/07/10 06:20:09;;;;;;;10.93;2.90;;;;;;;17.03;63.71;102133.41;5070003;28;20220;-72
2022/07/10 06:22:35;;;;;;;9.90;2.40;;;;;;;17.16;62.78;102130.16;5078232;28;20193;-72
2022/07/10 06:25:06;;;;;;;10.33;2.57;;;;;;;17.29;62.63;102125.16;5088131;28;20197;-71
2022/07/10 06:27:33;;;;;;;15.87;3.47;;;;;;;17.25;62.61;102140.63;5089979;28;20333;-72
2022/07/10 06:29:59;;;;;;;10.10;2.77;;;;;;;17.35;62.51;102129.53;5090238;28;20221;-72
2022/07/10 06:32:26;;;;;;;10.80;2.60;;;;;;;17.40;61.57;102133.09;5090408;28;20188;-72
2022/07/10 06:34:52;;;;;;;11.70;2.97;;;;;;;17.41;61.42;102132.25;5090311;28;20184;-71
2022/07/10 06:37:18;;;;;;;11.23;3.00;;;;;;;17.52;60.92;102141.88;5089709;28;20585;-71
2022/07/10 06:39:46;;;;;;;7.67;2.50;;;;;;;17.52;60.20;102144.47;5087586;28;20192;-72
2022/07/10 06:42:11;;;;;;;8.63;2.67;;;;;;;17.80;59.69;102143.94;5091586;28;20188;-71
2022/07/10 06:44:39;;;;;;;12.70;2.83;;;;;;;17.74;60.20;102136.06;5089512;28;20184;-72
2022/07/10 06:49:51;;;;;;;10.13;2.67;;;;;;;17.54;59.81;102135.00;5089248;28;20176;-72
2022/07/10 06:52:17;;;;;;;14.43;2.50;;;;;;;17.61;60.22;102135.94;5089277;28;20199;-71
2022/07/10 06:54:43;;;;;;;10.77;3.03;;;;;;;17.62;59.42;102128.19;5089268;28;20188;-71
2022/07/10 06:57:08;;;;;;;13.67;3.03;;;;;;;17.87;58.57;102130.16;5088445;28;20215;-71
2022/07/10 06:59:34;;;;;;;9.90;2.93;;;;;;;18.13;58.65;102126.13;5071209;28;20579;-71
2022/07/10 07:02:00;;;;;;;13.37;2.70;;;;;;;17.90;57.95;102125.03;5088994;28;20199;-72
2022/07/10 07:04:25;;;;;;;12.20;2.10;;;;;;;18.23;56.85;102122.75;5085454;28;20230;-72
2022/07/10 07:06:51;;;;;;;10.07;2.07;;;;;;;18.46;56.75;102123.84;5097225;28;20187;-72
2022/07/10 07:09:16;;;;;;;9.47;2.40;;;;;;;18.32;55.09;102114.16;5088611;28;20184;-71
2022/07/10 07:11:42;;;;;;;8.67;2.63;;;;;;;18.61;54.95;102123.94;5088229;28;20263;-72
2022/07/10 07:14:07;;;;;;;11.77;2.57;;;;;;;18.68;54.91;102117.97;5088877;28;20570;-73
2022/07/10 07:16:42;;;;;;;5.60;1.90;;;;;;;18.58;53.18;102110.97;5088183;28;20228;-72
2022/07/10 07:19:17;;;;;;;8.83;2.10;;;;;;;18.27;54.95;102113.25;5064788;28;20254;-71
2022/07/10 07:24:28;;;;;;;7.50;2.77;;;;;;;18.93;53.53;102125.03;5088828;28;20184;-72
2022/07/10 07:26:53;;;;;;;8.07;2.00;;;;;;;18.88;53.55;102121.53;5089021;28;20176;-72
2022/07/10 07:29:19;;;;;;;7.97;2.10;;;;;;;18.85;51.91;102110.28;5071131;28;20199;-71
2022/07/10 07:31:44;;;;;;;10.87;2.33;;;;;;;18.93;52.51;102119.00;5089427;28;20184;-72
2022/07/10 07:34:10;;;;;;;12.20;2.40;;;;;;;18.71;53.40;102123.19;5070965;28;20187;-73
2022/07/10 07:36:36;;;;;;;7.23;1.93;;;;;;;18.49;53.12;102128.19;5070913;28;20617;-72
2022/07/10 07:39:03;;;;;;;5.87;2.20;;;;;;;18.31;52.00;102117.63;5089035;28;20200;-72
2022/07/10 07:41:28;;;;;;;9.03;2.27;;;;;;;18.82;52.75;102123.22;5089115;28;20244;-72
2022/07/10 07:43:54;;;;;;;8.20;2.33;;;;;;;18.84;52.86;102117.19;5089471;28;20560;-72
2022/07/10 07:46:19;;;;;;;10.10;2.53;;;;;;;18.97;52.26;102125.94;5089148;28;20177;-70
2022/07/10 07:48:45;;;;;;;10.57;2.43;;;;;;;18.88;51.89;102120.69;5089061;28;20717;-72
2022/07/10 07:51:10;;;;;;;9.17;2.57;;;;;;;19.04;52.14;102117.31;5089182;28;20185;-72
2022/07/10 07:53:36;;;;;;;11.30;2.30;;;;;;;18.57;52.33;102116.16;5066162;28;20188;-71
2022/07/10 07:56:01;;;;;;;10.47;2.10;;;;;;;18.48;52.13;102119.56;5088792;28;20192;-72
2022/07/10 07:58:27;;;;;;;9.97;2.67;;;;;;;18.86;51.74;102114.59;5097002;28;20334;-72
2022/07/10 08:00:52;;;;;;;11.47;2.50;;;;;;;18.75;52.70;102118.88;5071042;28;20674;-72
2022/07/10 08:03:18;;;;;;;13.73;2.80;;;;;;;18.49;53.20;102118.69;5088921;28;20181;-72
2022/07/10 08:05:44;;;;;;;10.30;2.33;;;;;;;18.74;53.42;102120.59;5088995;28;20276;-72
2022/07/10 08:08:09;;;;;;;8.27;2.40;;;;;;;19.14;52.68;102117.38;5088616;28;20254;-72
2022/07/10 08:10:36;;;;;;;8.10;2.30;;;;;;;18.95;51.71;102109.47;5091664;28;20199;-71
2022/07/10 08:13:02;;;;;;;6.83;2.00;;;;;;;19.25;50.59;102114.88;5092617;28;20233;-72
2022/07/10 08:15:28;;;;;;;8.37;2.10;;;;;;;19.89;48.96;102104.66;5092512;28;20547;-72
2022/07/10 08:17:55;;;;;;;8.30;2.10;;;;;;;19.93;48.54;102097.72;5092492;28;20204;-71
2022/07/10 08:20:22;;;;;;;6.13;1.90;;;;;;;20.01;48.60;102103.81;5092595;28;20184;-72
2022/07/10 08:22:48;;;;;;;10.67;2.27;;;;;;;20.45;48.08;102091.72;5108077;28;20275;-72
2022/07/10 08:25:14;;;;;;;8.50;2.73;;;;;;;20.71;48.59;102096.00;5104093;28;20203;-72
2022/07/10 08:27:40;;;;;;;7.60;2.07;;;;;;;20.73;48.21;102096.00;5112607;28;20196;-72
2022/07/10 08:30:08;;;;;;;8.53;1.70;;;;;;;20.96;47.14;102092.50;5094527;28;20646;-72
2022/07/10 08:32:34;;;;;;;6.07;1.77;;;;;;;20.98;46.33;102093.38;5112658;28;20183;-72
2022/07/10 08:35:00;;;;;;;8.57;2.17;;;;;;;21.16;46.64;102095.03;5112310;28;20180;-71
2022/07/10 08:37:25;;;;;;;7.80;2.30;;;;;;;21.04;45.35;102105.50;5111767;28;20689;-73
2022/07/10 08:39:51;;;;;;;6.73;2.10;;;;;;;21.25;44.41;102100.22;5112891;28;20236;-73
2022/07/10 08:42:18;;;;;;;8.90;2.27;;;;;;;21.31;45.72;102089.75;5108641;28;20269;-71
2022/07/10 08:44:43;;;;;;;8.07;2.00;;;;;;;21.33;45.02;102094.09;5114048;28;20203;-72
2022/07/10 08:47:11;;;;;;;10.07;1.90;;;;;;;21.75;44.45;102095.66;5113569;28;20223;-73
2022/07/10 08:49:37;;;;;;;6.00;1.90;;;;;;;22.18;43.71;102097.06;5113567;28;20184;-73
2022/07/10 08:52:02;;;;;;;7.27;1.70;;;;;;;22.17;43.92;102095.34;5115264;28;20672;-74
2022/07/10 08:54:29;;;;;;;7.53;2.07;;;;;;;22.01;44.34;102091.97;5113513;28;20190;-73
2022/07/10 08:57:02;;;;;;;6.73;2.20;;;;;;;21.83;45.34;102093.88;5062327;28;20598;-73
2022/07/10 08:59:29;;;;;;;5.90;1.97;;;;;;;22.46;45.47;102076.88;5101025;28;20185;-72
2022/07/10 09:01:55;;;;;;;9.13;2.17;;;;;;;21.52;44.97;102089.66;5073180;28;20193;-73
2022/07/10 09:04:23;;;;;;;8.17;2.20;;;;;;;21.05;46.64;102096.84;5093881;28;20237;-73
2022/07/10 09:06:50;;;;;;;6.87;2.10;;;;;;;21.54;45.88;102085.31;5094711;28;20881;-73
2022/07/10 09:09:16;;;;;;;7.27;1.80;;;;;;;22.23;44.63;102084.84;5075166;28;20190;-72
2022/07/10 09:11:42;;;;;;;7.07;1.67;;;;;;;22.22;43.86;102085.72;5061693;28;20322;-72
2022/07/10 09:14:11;;;;;;;8.33;2.33;;;;;;;21.60;44.68;102086.13;5101584;28;20274;-73
2022/07/10 09:16:39;;;;;;;8.67;2.20;;;;;;;21.89;44.90;102089.44;5099370;28;20211;-73
2022/07/10 09:19:17;;;;;;;8.37;2.10;;;;;;;21.88;43.68;102084.28;5101968;28;20203;-72
2022/07/10 09:21:43;;;;;;;10.60;2.60;;;;;;;21.34;44.56;102093.25;5110806;28;20550;-73
2022/07/10 09:24:08;;;;;;;7.00;1.90;;;;;;;21.57;44.83;102073.13;5080477;28;20533;-73
2022/07/10 09:26:39;;;;;;;8.00;1.97;;;;;;;21.28;44.18;102089.78;5096166;28;20225;-72
2022/07/10 09:29:09;;;;;;;6.23;1.63;;;;;;;21.82;43.44;102090.38;5101792;28;20219;-73
2022/07/10 09:31:53;;;;;;;9.50;2.07;;;;;;;22.70;43.37;102092.28;5111323;28;20183;-72
2022/07/10 09:34:35;;;;;;;6.43;1.90;;;;;;;22.65;43.92;102092.31;5075417;28;20199;-73
2022/07/10 09:37:20;;;;;;;9.10;2.23;;;;;;;22.11;42.74;102084.97;5110690;28;20192;-73
2022/07/10 09:39:55;;;;;;;7.40;2.23;;;;;;;22.16;43.86;102099.69;5097479;28;20215;-73
2022/07/10 09:42:42;;;;;;;6.40;2.00;;;;;;;22.22;42.88;102088.34;5092708;28;20224;-72
2022/07/10 09:45:17;;;;;;;5.30;1.80;;;;;;;22.20;41.41;102092.72;5083783;28;20219;-71
2022/07/10 09:47:53;;;;;;;8.00;1.70;;;;;;;22.19;42.19;102096.19;5082475;28;20205;-72
2022/07/10 09:50:22;;;;;;;6.47;2.13;;;;;;;21.96;43.54;102098.97;5072921;28;20531;-72
2022/07/10 09:52:54;;;;;;;10.83;2.20;;;;;;;22.70;41.93;102094.91;5090694;28;20746;-72
2022/07/10 09:55:21;;;;;;;5.20;1.47;;;;;;;22.79;42.88;102100.03;5055965;28;20211;-72
2022/07/10 09:57:54;;;;;;;7.10;1.97;;;;;;;22.88;40.91;102103.41;5096277;28;20294;-72
2022/07/10 10:00:25;;;;;;;7.10;1.90;;;;;;;22.29;41.85;102096.09;5100992;28;20192;-72
2022/07/10 10:02:54;;;;;;;7.70;1.90;;;;;;;22.79;42.03;102095.66;5111016;28;20578;-72
2022/07/10 10:05:23;;;;;;;7.43;2.00;;;;;;;23.26;41.92;102100.38;5092782;28;20192;-72
2022/07/10 10:07:49;;;;;;;5.67;1.67;;;;;;;22.97;40.49;102099.84;5110834;28;20207;-73
2022/07/10 10:10:16;;;;;;;5.67;2.00;;;;;;;23.53;40.50;102090.41;5090618;28;20199;-72
2022/07/10 10:12:47;;;;;;;8.33;1.83;;;;;;;23.37;39.82;102088.03;5075850;28;20571;-72
2022/07/10 10:15:14;;;;;;;6.37;1.97;;;;;;;23.15;41.01;102087.41;5102783;28;20281;-72
2022/07/10 10:17:40;;;;;;;6.70;2.00;;;;;;;22.91;40.79;102097.28;5104629;28;20589;-73
2022/07/10 10:22:55;;;;;;;6.33;2.10;;;;;;;23.03;40.08;102082.34;5090312;28;20191;-72
2022/07/10 10:25:23;;;;;;;9.10;1.93;;;;;;;23.11;39.24;102092.69;5090176;28;20237;-73
2022/07/10 10:27:50;;;;;;;7.53;1.83;;;;;;;23.42;39.89;102091.44;5072030;28;20323;-72
2022/07/10 10:30:16;;;;;;;4.43;1.40;;;;;;;23.53;38.21;102087.78;5090213;28;20275;-72
2022/07/10 10:32:42;;;;;;;5.27;1.50;;;;;;;23.28;39.68;102085.53;5071310;28;20200;-72
2022/07/10 10:35:10;;;;;;;5.60;1.60;;;;;;;23.18;40.41;102090.00;5089984;28;20180;-72
2022/07/10 10:37:39;;;;;;;6.63;1.90;;;;;;;23.71;39.69;102084.94;5071466;28;20633;-73
2022/07/10 10:40:09;;;;;;;6.50;1.60;;;;;;;22.81;40.01;102095.66;5071773;28;20910;-72
2022/07/10 10:42:40;;;;;;;5.90;1.90;;;;;;;22.60;41.08;102101.09;5089872;28;20208;-72
2022/07/10 10:45:24;;;;;;;8.47;1.67;;;;;;;23.45;40.62;102092.28;5089783;28;20317;-72
2022/07/10 10:48:04;;;;;;;5.60;1.60;;;;;;;23.43;39.07;102085.34;5105128;28;20239;-72
2022/07/10 10:50:48;;;;;;;6.27;1.53;;;;;;;23.02;38.98;102085.81;5071826;28;20218;-72
2022/07/10 10:53:15;;;;;;;6.27;1.67;;;;;;;23.38;39.14;102089.78;5089647;28;20177;-73
2022/07/10 10:56:03;;;;;;;7.07;1.93;;;;;;;22.97;40.11;102087.63;5071612;28;20183;-72
2022/07/10 10:58:45;;;;;;;7.00;1.60;;;;;;;22.30;40.24;102083.94;5073696;28;20729;-72
2022/07/10 11:01:20;;;;;;;6.40;1.63;;;;;;;22.80;39.74;102076.50;5069445;28;20685;-71
2022/07/10 11:04:04;;;;;;;8.63;2.17;;;;;;;23.78;38.82;102078.72;5069452;28;20176;-72
2022/07/10 11:06:46;;;;;;;5.87;1.60;;;;;;;24.06;40.69;102076.56;5081438;28;20191;-72
2022/07/10 11:09:21;;;;;;;5.93;1.80;;;;;;;24.24;37.20;102074.53;5101429;28;20171;-72
2022/07/10 11:12:17;;;;;;;4.83;1.33;;;;;;;23.67;37.74;102090.25;5081043;28;20264;-72
2022/07/10 11:14:49;;;;;;;3.67;1.30;;;;;;;23.85;38.53;102089.97;5066621;28;20641;-72
2022/07/10 11:17:14;;;;;;;3.67;1.30;;;;;;;23.37;37.52;102088.91;5089100;28;20295;-72
2022/07/10 11:19:40;;;;;;;4.63;1.70;;;;;;;23.69;38.75;102091.06;5089553;28;20337;-73
2022/07/10 11:22:24;;;;;;;4.38;1.38;;;;;;;23.32;37.98;102085.47;5089798;28;20177;-72
2022/07/10 11:24:58;;;;;;;6.00;1.70;;;;;;;23.04;40.43;102091.03;5089604;28;20176;-72
2022/07/10 11:27:52;;;;;;;4.33;1.30;;;;;;;22.90;39.17;102083.34;5089129;28;20697;-71
2022/07/10 11:30:17;;;;;;;4.67;1.27;;;;;;;22.35;39.38;102098.66;5071200;28;20714;-72
2022/07/10 11:32:43;;;;;;;5.80;1.50;;;;;;;23.03;39.44;102089.31;5071483;28;20176;-72
2022/07/10 11:35:12;;;;;;;5.33;1.40;;;;;;;23.03;39.99;102082.34;5089243;28;20192;-72